createdAt,value
2023-03-03T00:02:08.122Z,36.95
2023-03-03T00:04:36.980Z,38.83
2023-03-03T00:07:05.629Z,38.08
2023-03-03T00:09:35.942Z,38.80
2023-03-03T00:12:21.730Z,38.38
2023-03-03T00:14:52.346Z,38.50
2023-03-03T00:17:30.956Z,36.92
2023-03-03T00:20:02.845Z,37.83
2023-03-03T00:22:37.768Z,37.75
2023-03-03T00:25:19.799Z,37.30
2023-03-03T00:27:48.681Z,37.20
2023-03-03T00:30:29.678Z,38.60
2023-03-03T00:32:58.695Z,41.63
2023-03-03T00:35:36.182Z,40.55
2023-03-03T00:38:18.068Z,41.50
2023-03-03T00:40:47.469Z,37.95
2023-03-03T00:43:21.860Z,34.88
2023-03-03T00:45:52.536Z,35.53
2023-03-03T00:48:36.887Z,35.67
2023-03-03T00:51:32.285Z,36.85
2023-03-03T00:54:00.641Z,35.92
2023-03-03T00:56:33.591Z,37.20
2023-03-03T00:59:02.348Z,36.28
2023-03-03T01:01:34.952Z,34.40
2023-03-03T01:04:04.455Z,36.53
2023-03-03T01:06:35.814Z,34.83
2023-03-03T01:09:04.778Z,34.42
2023-03-03T01:11:39.759Z,36.17
2023-03-03T01:14:11.265Z,35.92
2023-03-03T01:16:41.905Z,35.92
2023-03-03T01:19:11.210Z,35.20
2023-03-03T01:21:41.329Z,35.28
2023-03-03T01:24:10.868Z,36.88
2023-03-03T01:26:42.579Z,33.90
2023-03-03T01:29:11.556Z,36.83
2023-03-03T01:31:41.861Z,35.95
2023-03-03T01:34:11.032Z,34.42
2023-03-03T01:36:40.651Z,35.13
2023-03-03T01:39:11.158Z,34.97
2023-03-03T01:41:41.801Z,35.13
2023-03-03T01:44:15.699Z,34.92
2023-03-03T01:46:57.999Z,38.58
2023-03-03T01:49:30.996Z,35.50
2023-03-03T01:52:02.857Z,36.53
2023-03-03T01:54:47.723Z,35.33
2023-03-03T01:57:24.103Z,34.88
2023-03-03T01:59:53.702Z,35.95
2023-03-03T02:02:24.019Z,36.40
2023-03-03T02:04:54.896Z,34.60
2023-03-03T02:07:27.974Z,34.92
2023-03-03T02:10:20.212Z,36.13
2023-03-03T02:12:59.332Z,35.63
2023-03-03T02:15:38.726Z,32.72
2023-03-03T02:18:13.691Z,32.92
2023-03-03T02:21:03.316Z,34.80
2023-03-03T02:23:44.129Z,35.25
2023-03-03T02:26:23.102Z,34.47
2023-03-03T02:28:56.782Z,33.35
2023-03-03T02:31:28.823Z,33.40
2023-03-03T02:33:57.856Z,34.83
2023-03-03T02:36:32.515Z,34.05
2023-03-03T02:39:22.597Z,33.35
2023-03-03T02:42:02.321Z,40.17
2023-03-03T02:44:43.702Z,39.05
2023-03-03T02:47:12.069Z,37.85
2023-03-03T02:49:43.077Z,36.58
2023-03-03T02:52:20.317Z,35.03
2023-03-03T02:54:56.864Z,32.92
2023-03-03T02:57:27.016Z,32.60
2023-03-03T02:59:56.608Z,30.85
2023-03-03T03:02:24.892Z,32.75
2023-03-03T03:04:53.484Z,33.47
2023-03-03T03:07:25.965Z,34.83
2023-03-03T03:09:55.138Z,35.25
2023-03-03T03:12:24.232Z,36.92
2023-03-03T03:14:57.405Z,37.17
2023-03-03T03:17:27.562Z,41.53
2023-03-03T03:19:58.315Z,36.97
2023-03-03T03:22:29.792Z,53.13
2023-03-03T03:24:58.752Z,50.92
2023-03-03T03:27:27.078Z,80.05
2023-03-03T03:30:02.967Z,97.28
2023-03-03T03:32:32.672Z,105.70
2023-03-03T03:35:03.966Z,75.05
2023-03-03T03:37:33.706Z,54.67
2023-03-03T03:40:05.368Z,57.38
2023-03-03T03:42:34.726Z,57.33
2023-03-03T03:45:04.653Z,65.30
2023-03-03T03:47:34.172Z,43.65
2023-03-03T03:50:04.460Z,43.10
2023-03-03T03:52:35.684Z,35.53
2023-03-03T03:55:09.156Z,35.80
2023-03-03T03:57:42.040Z,29.58
2023-03-03T04:00:13.491Z,48.90
2023-03-03T04:02:51.403Z,83.55
2023-03-03T04:05:24.602Z,51.22
2023-03-03T04:07:53.546Z,36.80
2023-03-03T04:10:23.831Z,34.65
2023-03-03T04:12:52.736Z,28.98
2023-03-03T04:15:25.679Z,32.30
2023-03-03T04:20:43.686Z,26.52
2023-03-03T04:23:12.962Z,27.55
2023-03-03T04:25:54.796Z,26.52
2023-03-03T04:28:26.114Z,38.50
2023-03-03T04:31:00.160Z,42.55
2023-03-03T04:33:30.718Z,40.03
2023-03-03T04:36:01.003Z,33.47
2023-03-03T04:38:30.844Z,45.78
2023-03-03T04:41:00.644Z,38.35
2023-03-03T04:43:34.950Z,26.27
2023-03-03T04:46:12.557Z,48.25
2023-03-03T04:48:43.538Z,48.63
2023-03-03T04:51:17.705Z,29.70
2023-03-03T04:53:48.636Z,32.05
2023-03-03T04:56:17.672Z,30.63
2023-03-03T04:58:49.375Z,27.67
2023-03-03T05:01:20.375Z,26.98
2023-03-03T05:03:51.276Z,25.58
2023-03-03T05:06:21.311Z,27.13
2023-03-03T05:08:49.923Z,25.40
2023-03-03T05:11:20.368Z,27.95
2023-03-03T05:13:48.780Z,20.80
2023-03-03T05:16:18.456Z,24.88
2023-03-03T05:18:51.553Z,25.17
2023-03-03T05:21:24.477Z,61.53
2023-03-03T05:23:54.920Z,60.60
2023-03-03T05:26:23.693Z,29.52
2023-03-03T05:28:52.304Z,20.63
2023-03-03T05:31:21.464Z,23.67
2023-03-03T05:33:50.077Z,24.98
2023-03-03T05:36:18.827Z,19.40
2023-03-03T05:38:47.146Z,21.02
2023-03-03T05:41:16.081Z,20.58
2023-03-03T05:43:47.552Z,18.85
2023-03-03T05:46:17.647Z,18.45
2023-03-03T05:48:47.887Z,18.38
2023-03-03T05:51:19.138Z,19.67
2023-03-03T05:53:56.321Z,18.30
2023-03-03T05:56:25.837Z,17.73
2023-03-03T05:58:54.854Z,18.85
2023-03-03T06:01:24.989Z,18.98
2023-03-03T06:03:54.240Z,18.70
2023-03-03T06:06:24.208Z,17.48
2023-03-03T06:08:56.894Z,16.98
2023-03-03T06:11:33.821Z,17.75
2023-03-03T06:14:05.130Z,17.40
2023-03-03T06:16:37.720Z,17.90
2023-03-03T06:19:06.838Z,17.10
2023-03-03T06:21:35.643Z,18.90
2023-03-03T06:24:05.678Z,18.98
2023-03-03T06:26:37.099Z,22.83
2023-03-03T06:29:06.888Z,19.02
2023-03-03T06:31:37.306Z,16.52
2023-03-03T06:34:05.752Z,17.48
2023-03-03T06:36:37.208Z,17.25
2023-03-03T06:39:06.590Z,18.13
2023-03-03T06:41:42.425Z,20.20
2023-03-03T06:44:13.430Z,18.27
2023-03-03T06:46:44.653Z,19.65
2023-03-03T06:49:14.319Z,19.27
2023-03-03T06:51:48.136Z,19.80
2023-03-03T06:54:20.985Z,20.15
2023-03-03T06:56:59.316Z,20.27
2023-03-03T06:59:29.019Z,18.70
2023-03-03T07:01:58.026Z,19.38
2023-03-03T07:04:33.849Z,20.02
2023-03-03T07:07:16.685Z,19.70
2023-03-03T07:09:55.643Z,20.17
2023-03-03T07:12:31.196Z,22.77
2023-03-03T07:15:34.865Z,20.90
2023-03-03T07:18:32.715Z,20.02
2023-03-03T07:21:19.672Z,20.55
2023-03-03T07:23:58.765Z,20.60
2023-03-03T07:26:34.428Z,20.45
2023-03-03T07:29:29.015Z,19.58
2023-03-03T07:31:59.204Z,19.65
2023-03-03T07:34:44.164Z,19.38
2023-03-03T07:37:21.177Z,19.90
2023-03-03T07:39:51.888Z,18.67
2023-03-03T07:42:46.351Z,19.25
2023-03-03T07:45:29.508Z,17.50
2023-03-03T07:48:33.518Z,18.30
2023-03-03T07:51:20.117Z,17.67
2023-03-03T07:53:49.449Z,18.38
2023-03-03T07:56:27.150Z,18.52
2023-03-03T07:58:56.352Z,18.38
2023-03-03T08:01:43.920Z,20.08
2023-03-03T08:04:17.847Z,16.23
2023-03-03T08:06:58.299Z,15.55
2023-03-03T08:09:31.559Z,19.48
2023-03-03T08:12:37.656Z,20.05
2023-03-03T08:15:17.744Z,17.30
2023-03-03T08:17:51.731Z,21.63
2023-03-03T08:20:45.605Z,16.40
2023-03-03T08:23:16.108Z,13.15
2023-03-03T08:25:52.096Z,12.77
2023-03-03T08:28:22.809Z,11.52
2023-03-03T08:30:54.427Z,62.45
2023-03-03T08:33:32.384Z,19.63
2023-03-03T08:36:05.798Z,11.98
2023-03-03T08:38:36.502Z,12.38
2023-03-03T08:41:05.198Z,23.02
2023-03-03T08:43:33.893Z,11.55
2023-03-03T08:46:06.410Z,12.43
2023-03-03T08:48:39.161Z,11.43
2023-03-03T08:51:10.627Z,12.77
2023-03-03T08:53:42.180Z,10.07
2023-03-03T08:56:12.407Z,10.65
2023-03-03T08:59:01.127Z,9.55
2023-03-03T09:01:32.140Z,10.05
2023-03-03T09:04:02.112Z,9.57
2023-03-03T09:06:31.399Z,11.00
2023-03-03T09:09:00.445Z,12.32
2023-03-03T09:11:30.347Z,12.32
2023-03-03T09:14:18.335Z,11.18
2023-03-03T09:16:54.573Z,11.25
2023-03-03T09:21:56.703Z,9.93
2023-03-03T09:24:29.397Z,11.00
2023-03-03T09:27:00.041Z,10.38
2023-03-03T09:29:30.744Z,8.93
2023-03-03T09:32:14.902Z,10.90
2023-03-03T09:34:44.798Z,9.48
2023-03-03T09:37:24.715Z,9.50
2023-03-03T09:40:01.006Z,9.68
2023-03-03T09:42:31.060Z,8.82
2023-03-03T09:45:23.988Z,10.38
2023-03-03T09:47:54.084Z,9.63
2023-03-03T09:50:36.505Z,9.15
2023-03-03T09:53:40.332Z,8.48
2023-03-03T09:56:20.908Z,10.02
2023-03-03T09:59:14.479Z,10.48
2023-03-03T10:02:26.229Z,7.65
2023-03-03T10:05:34.115Z,7.10
2023-03-03T10:08:36.270Z,9.95
2023-03-03T10:11:04.577Z,8.90
2023-03-03T10:14:00.977Z,8.32
2023-03-03T10:17:06.679Z,10.25
2023-03-03T10:19:39.061Z,9.10
2023-03-03T10:22:28.780Z,9.60
2023-03-03T10:25:39.026Z,8.73
2023-03-03T10:28:46.227Z,10.20
2023-03-03T10:31:53.894Z,9.70
2023-03-03T10:34:45.668Z,8.90
2023-03-03T10:37:49.224Z,8.73
2023-03-03T10:40:36.528Z,9.75
2023-03-03T10:43:48.244Z,8.70
2023-03-03T10:46:57.766Z,8.55
2023-03-03T10:49:32.457Z,8.50
2023-03-03T10:52:04.080Z,8.82
2023-03-03T10:54:51.135Z,8.10
2023-03-03T10:57:41.373Z,8.23
2023-03-03T11:00:22.998Z,9.32
2023-03-03T11:03:10.325Z,10.15
2023-03-03T11:06:01.359Z,10.52
2023-03-03T11:08:57.602Z,10.48
2023-03-03T11:11:27.522Z,8.63
2023-03-03T11:14:24.040Z,8.02
2023-03-03T11:17:10.991Z,12.40
2023-03-03T11:20:01.236Z,8.20
2023-03-03T11:22:41.838Z,7.57
2023-03-03T11:25:33.474Z,7.78
2023-03-03T11:28:24.104Z,8.27
2023-03-03T11:31:07.296Z,9.50
2023-03-03T11:34:07.354Z,10.57
2023-03-03T11:36:36.223Z,9.35
2023-03-03T11:39:38.887Z,9.30
2023-03-03T11:42:38.368Z,9.27
2023-03-03T11:45:19.323Z,10.00
2023-03-03T11:48:09.051Z,9.88
2023-03-03T11:51:07.450Z,10.43
2023-03-03T11:54:05.257Z,9.85
2023-03-03T11:56:55.329Z,8.60
2023-03-03T11:59:56.197Z,9.15
2023-03-03T12:02:48.153Z,8.88
2023-03-03T12:05:55.423Z,11.57
2023-03-03T12:09:11.851Z,9.38
2023-03-03T12:11:53.535Z,8.82
2023-03-03T12:15:00.989Z,9.43
2023-03-03T12:18:05.927Z,9.32
2023-03-03T12:20:46.138Z,9.93
2023-03-03T12:23:18.970Z,10.77
2023-03-03T12:26:16.666Z,10.10
2023-03-03T12:28:47.680Z,9.50
2023-03-03T12:31:47.998Z,9.07
2023-03-03T12:34:36.705Z,9.25
2023-03-03T12:37:19.054Z,10.32
2023-03-03T12:40:14.266Z,9.43
2023-03-03T12:42:44.400Z,10.10
2023-03-03T12:45:53.650Z,10.13
2023-03-03T12:48:49.998Z,9.30
2023-03-03T12:51:57.995Z,8.48
2023-03-03T12:55:30.870Z,10.40
2023-03-03T12:58:35.542Z,32.85
2023-03-03T13:01:36.841Z,30.02
2023-03-03T13:04:48.246Z,40.55
2023-03-03T13:07:33.297Z,24.98
2023-03-03T13:10:09.842Z,33.08
2023-03-03T13:12:57.729Z,15.90
2023-03-03T13:15:33.976Z,20.25
2023-03-03T13:18:03.921Z,10.77
2023-03-03T13:20:41.836Z,9.77
2023-03-03T13:23:43.023Z,10.18
2023-03-03T13:26:51.782Z,11.52
2023-03-03T13:29:56.100Z,10.52
2023-03-03T13:32:33.378Z,9.68
2023-03-03T13:35:09.450Z,9.77
2023-03-03T13:37:54.999Z,10.85
2023-03-03T13:41:00.376Z,10.07
2023-03-03T13:44:00.103Z,9.30
2023-03-03T13:46:55.061Z,8.73
2023-03-03T13:50:03.102Z,9.57
2023-03-03T13:52:49.762Z,12.50
2023-03-03T13:55:37.520Z,10.95
2023-03-03T14:01:02.086Z,10.48
2023-03-03T14:03:59.766Z,10.60
2023-03-03T14:06:31.041Z,11.73
2023-03-03T14:08:59.961Z,11.20
2023-03-03T14:11:50.121Z,12.27
2023-03-03T14:14:46.861Z,10.45
2023-03-03T14:17:42.181Z,10.38
2023-03-03T14:20:53.825Z,13.45
2023-03-03T14:23:43.325Z,13.13
2023-03-03T14:26:16.028Z,11.73
2023-03-03T14:28:55.914Z,10.75
2023-03-03T14:31:48.091Z,11.18
2023-03-03T14:34:44.893Z,11.30
2023-03-03T14:37:43.540Z,11.57
2023-03-03T14:40:36.829Z,11.30
2023-03-03T14:43:37.042Z,11.18
2023-03-03T14:46:37.792Z,10.95
2023-03-03T14:49:29.478Z,9.80
2023-03-03T14:52:21.409Z,11.43
2023-03-03T14:55:05.253Z,11.02
2023-03-03T14:57:55.697Z,11.73
2023-03-03T15:00:34.128Z,12.20
2023-03-03T15:03:23.380Z,15.25
2023-03-03T15:06:06.733Z,28.50
2023-03-03T15:08:41.126Z,24.52
2023-03-03T15:11:43.912Z,23.23
2023-03-03T15:14:19.154Z,15.23
2023-03-03T15:16:48.448Z,22.42
2023-03-03T15:19:19.013Z,23.05
2023-03-03T15:22:22.237Z,18.02
2023-03-03T15:25:04.077Z,21.10
2023-03-03T15:27:48.821Z,20.02
2023-03-03T15:30:36.959Z,16.02
2023-03-03T15:33:41.979Z,17.55
2023-03-03T15:36:37.721Z,19.40
2023-03-03T15:39:43.719Z,21.65
2023-03-03T15:42:23.451Z,22.33
2023-03-03T15:45:24.863Z,22.63
2023-03-03T15:48:23.821Z,17.52
2023-03-03T15:51:30.759Z,19.75
2023-03-03T15:54:23.678Z,14.40
2023-03-03T15:56:59.937Z,15.95
2023-03-03T16:00:06.091Z,22.35
2023-03-03T16:02:43.889Z,22.80
2023-03-03T16:05:19.550Z,16.85
2023-03-03T16:08:09.480Z,14.60
2023-03-03T16:10:56.771Z,22.05
2023-03-03T16:14:49.552Z,22.40
2023-03-03T16:18:02.712Z,14.48
2023-03-03T16:21:07.776Z,16.17
2023-03-03T16:23:58.769Z,16.63
2023-03-03T16:26:54.344Z,19.52
2023-03-03T16:30:15.962Z,22.40
2023-03-03T16:33:14.635Z,16.67
2023-03-03T16:36:14.379Z,19.60
2023-03-03T16:38:48.634Z,17.50
2023-03-03T16:41:43.554Z,16.38
2023-03-03T16:44:35.181Z,20.55
2023-03-03T16:47:28.140Z,16.38
2023-03-03T16:50:24.680Z,16.23
2023-03-03T16:53:17.638Z,15.65
2023-03-03T16:59:36.221Z,13.38
2023-03-03T17:02:14.797Z,14.93
2023-03-03T17:04:51.358Z,15.05
2023-03-03T17:07:49.863Z,14.93
2023-03-03T17:10:40.714Z,15.95
2023-03-03T17:13:42.566Z,16.55
2023-03-03T17:16:42.879Z,14.48
2023-03-03T17:19:42.188Z,13.70
2023-03-03T17:22:26.541Z,13.38
2023-03-03T17:25:23.519Z,12.15
2023-03-03T17:28:04.216Z,12.02
2023-03-03T17:31:13.286Z,15.27
2023-03-03T17:33:44.657Z,26.50
2023-03-03T17:36:32.011Z,22.60
2023-03-03T17:39:21.634Z,24.45
2023-03-03T17:42:05.276Z,22.10
2023-03-03T17:45:09.982Z,23.60
2023-03-03T17:47:57.187Z,17.33
2023-03-03T17:51:04.001Z,15.48
2023-03-03T17:53:48.963Z,20.10
2023-03-03T17:56:43.977Z,24.90
2023-03-03T17:59:53.286Z,20.88
2023-03-03T18:02:30.756Z,23.55
2023-03-03T18:05:20.415Z,20.77
2023-03-03T18:07:59.436Z,23.50
2023-03-03T18:11:03.864Z,18.75
2023-03-03T18:14:06.490Z,15.13
2023-03-03T18:16:54.377Z,16.88
2023-03-03T18:20:06.622Z,17.90
2023-03-03T18:22:54.261Z,18.25
2023-03-03T18:25:25.417Z,17.95
2023-03-03T18:28:00.579Z,19.60
2023-03-03T18:30:35.281Z,25.92
2023-03-03T18:33:11.297Z,34.35
2023-03-03T18:35:47.946Z,33.15
2023-03-03T18:38:16.996Z,31.20
2023-03-03T18:40:52.451Z,21.42
2023-03-03T18:44:00.097Z,19.33
2023-03-03T18:46:45.873Z,20.67
2023-03-03T18:49:14.856Z,32.70
2023-03-03T18:51:45.877Z,35.83
2023-03-03T18:54:18.601Z,30.15
2023-03-03T18:56:48.325Z,25.40
2023-03-03T18:59:41.401Z,20.92
2023-03-03T19:02:43.950Z,27.00
2023-03-03T19:05:54.259Z,36.63
2023-03-03T19:08:29.182Z,28.83
2023-03-03T19:12:00.859Z,20.88
2023-03-03T19:14:34.608Z,26.88
2023-03-03T19:17:22.342Z,19.95
2023-03-03T19:20:11.992Z,27.25
2023-03-03T19:23:00.823Z,20.58
2023-03-03T19:25:34.404Z,33.88
2023-03-03T19:28:28.187Z,35.00
2023-03-03T19:31:47.988Z,54.70
2023-03-03T19:34:39.866Z,42.40
2023-03-03T19:37:37.392Z,32.00
2023-03-03T19:40:26.824Z,26.67
2023-03-03T19:43:03.040Z,27.40
2023-03-03T19:49:09.598Z,33.85
2023-03-03T19:52:17.505Z,36.90
2023-03-03T19:55:30.848Z,58.78
2023-03-03T19:58:18.012Z,40.95
2023-03-03T20:01:06.350Z,27.13
2023-03-03T20:04:03.803Z,23.80
2023-03-03T20:07:13.832Z,27.08
2023-03-03T20:10:03.564Z,19.08
2023-03-03T20:13:08.005Z,20.23
2023-03-03T20:20:36.285Z,30.63
2023-03-03T20:23:06.543Z,21.45
2023-03-03T20:26:26.390Z,20.27
2023-03-03T20:29:06.536Z,20.00
2023-03-03T20:31:36.312Z,20.08
2023-03-03T20:34:35.538Z,18.38
2023-03-03T20:37:15.272Z,19.50
2023-03-03T20:39:59.329Z,18.30
2023-03-03T20:42:55.725Z,16.10
2023-03-03T20:46:05.274Z,17.27
2023-03-03T20:48:50.820Z,16.55
2023-03-03T20:51:39.949Z,15.65
2023-03-03T20:54:18.272Z,18.92
2023-03-03T20:56:53.620Z,19.98
2023-03-03T20:59:37.357Z,16.13
2023-03-03T21:02:38.550Z,18.67
2023-03-03T21:05:13.445Z,18.65
2023-03-03T21:08:52.570Z,20.75
2023-03-03T21:11:42.498Z,17.40
2023-03-03T21:20:32.518Z,17.88
2023-03-03T21:23:07.248Z,21.67
2023-03-03T21:25:42.431Z,21.83
2023-03-03T21:28:26.842Z,31.05
2023-03-03T21:31:19.576Z,25.88
2023-03-03T21:33:49.593Z,17.08
2023-03-03T21:36:50.292Z,15.57
2023-03-03T21:39:46.749Z,15.32
2023-03-03T21:42:19.469Z,16.13
2023-03-03T21:45:00.174Z,37.88
2023-03-03T21:47:29.819Z,20.52
2023-03-03T21:50:01.096Z,16.80
2023-03-03T21:55:38.688Z,18.38
2023-03-03T21:58:08.693Z,15.80
2023-03-03T22:00:38.631Z,20.10
2023-03-03T22:03:08.555Z,21.60
2023-03-03T22:05:40.950Z,17.40
2023-03-03T22:08:11.175Z,20.00
2023-03-03T22:10:56.049Z,16.65
2023-03-03T22:13:31.533Z,17.10
2023-03-03T22:16:05.485Z,15.80
2023-03-03T22:18:35.712Z,16.05
2023-03-03T22:21:11.760Z,16.88
2023-03-03T22:23:40.444Z,15.43
2023-03-03T22:26:10.994Z,15.63
2023-03-03T22:30:11.841Z,16.77
2023-03-03T22:32:41.582Z,15.02
2023-03-03T22:35:18.562Z,16.83
2023-03-03T22:37:48.065Z,16.50
2023-03-03T22:40:18.061Z,16.38
2023-03-03T22:42:48.555Z,16.77
2023-03-03T22:45:18.222Z,16.02
2023-03-03T22:47:53.882Z,16.33
2023-03-03T22:50:23.438Z,16.35
2023-03-03T22:52:54.986Z,16.70
2023-03-03T22:55:23.627Z,15.50
2023-03-03T22:58:00.308Z,16.15
2023-03-03T23:00:30.609Z,16.40
2023-03-03T23:03:00.721Z,15.82
2023-03-03T23:05:33.520Z,15.38
2023-03-03T23:08:07.696Z,15.90
2023-03-03T23:10:39.033Z,15.82
2023-03-03T23:13:09.126Z,15.02
2023-03-03T23:15:38.749Z,16.83
2023-03-03T23:18:07.540Z,16.88
2023-03-03T23:20:37.002Z,16.33
2023-03-03T23:23:05.645Z,15.40
2023-03-03T23:25:37.290Z,15.23
2023-03-03T23:28:08.623Z,13.88
2023-03-03T23:30:37.842Z,14.25
2023-03-03T23:33:06.491Z,15.13
2023-03-03T23:35:41.174Z,14.55
2023-03-03T23:38:20.556Z,14.95
2023-03-03T23:40:56.301Z,14.02
2023-03-03T23:43:24.933Z,15.60
2023-03-03T23:46:01.021Z,14.82
2023-03-03T23:48:35.115Z,14.70
2023-03-03T23:51:06.712Z,14.88
2023-03-03T23:53:40.605Z,15.45
2023-03-03T23:56:11.972Z,16.63
2023-03-03T23:58:41.123Z,16.30
